This is the latest recevied weather packets stored in our database for station/object IZ1UQG-2. If no packets are shown the sender has not sent any weather packets the latest 10 day(s).
| Time | Temp. | Humidity | Pressure | Rain* | Wind** | Luminosity | Snow |
|---|---|---|---|---|---|---|---|
| 1777918867 | 18.33° C | 59% | 1013.6 hPa | 0 mm | - | 0 W/m² | - |
| 1777918447 | 18.89° C | 56% | 1013.5 hPa | 0 mm | - | 0 W/m² | - |
| 1777918327 | 18.89° C | 55% | 1013.5 hPa | 0 mm | - | 0 W/m² | - |
| 1777917787 | 18.89° C | 54% | 1013.5 hPa | 0 mm | - | 7 W/m² | - |
| 1777917607 | 18.89° C | 55% | 1013.4 hPa | 0 mm | - | 9 W/m² | - |
| 1777917311 | 18.89° C | 56% | 1013.5 hPa | 0 mm | - | 11 W/m² | - |
| 1777917247 | 18.89° C | 56% | 1013.5 hPa | 0 mm | - | 12 W/m² | - |
| 1777917187 | 18.89° C | 56% | 1013.5 hPa | 0 mm | - | 12 W/m² | - |
| 1777915630 | 19.44° C | 53% | 1013.4 hPa | 0 mm | - | 23 W/m² | - |
| 1777915267 | 19.44° C | 52% | 1013.3 hPa | 0 mm | - | 26 W/m² | - |
| 1777915210 | 19.44° C | 52% | 1013.5 hPa | 0 mm | - | 26 W/m² | - |
| 1777915027 | 19.44° C | 52% | 1013.5 hPa | 0 mm | - | 46 W/m² | - |
| 1777914907 | 19.44° C | 52% | 1013.5 hPa | 0 mm | - | 46 W/m² | - |
| 1777875666 | 15° C | 67% | 1016.1 hPa | 0 mm | - | 125 W/m² | - |
| 1777875126 | 15° C | 67% | 1016 hPa | 0 mm | - | 90 W/m² | - |
| 1777872064 | 14.44° C | 70% | 1015.6 hPa | 0 mm | - | 83 W/m² | - |
| 1777871705 | 14.44° C | 70% | 1015.6 hPa | 0 mm | - | 70 W/m² | - |
| 1777871344 | 13.89° C | 70% | 1015.6 hPa | 0 mm | - | 53 W/m² | - |
| 1777870083 | 14.44° C | 70% | 1015.6 hPa | 0 mm | - | 35 W/m² | - |
| 1777870024 | 14.44° C | 70% | 1015.5 hPa | 0 mm | - | 33 W/m² | - |
| 1777869844 | 14.44° C | 70% | 1015.5 hPa | 0 mm | - | 30 W/m² | - |
| 1777869783 | 14.44° C | 70% | 1015.4 hPa | 0 mm | - | 28 W/m² | - |
| 1777868884 | 13.89° C | 71% | 1015.2 hPa | 0 mm | - | 12 W/m² | - |
| 1777868463 | 13.89° C | 71% | 1015.2 hPa | 0 mm | - | 9 W/m² | - |
| 1777868104 | 13.89° C | 71% | 1015.2 hPa | 0 mm | - | 5 W/m² | - |
* Rain latest hour (hover to see other rain measurements)
** Current wind speed in m/s (hover to see current wind gust speed)